Time;durP1;ratioP1;P1;durP2;ratioP2;P2;SDS_P1;SDS_P2;PMS_P1;PMS_P2;Temp;Humidity;BMP_temperature;BMP_pressure;BME280_temperature;BME280_humidity;BME280_pressure;Samples;Min_cycle;Max_cycle;Signal;HPM_P1;HPM_P2
2022/09/10 00:01:44;;;;;;;15.15;9.45;;;;;;;;;;5072528;28;20521;-62
2022/09/10 00:04:11;;;;;;;10.90;9.68;;;;;;;;;;5072780;28;20075;-61
2022/09/10 00:06:37;;;;;;;18.55;9.60;;;;;;;;;;5065517;28;20059;-62
2022/09/10 00:09:04;;;;;;;14.38;10.65;;;;;;;;;;5065138;28;20064;-62
2022/09/10 00:11:31;;;;;;;12.80;9.18;;;;;;;;;;5071912;28;20040;-62
2022/09/10 00:14:01;;;;;;;11.05;9.40;;;;;;;;;;5069434;28;20118;-61
2022/09/10 00:16:27;;;;;;;15.63;11.70;;;;;;;;;;5066339;28;20036;-62
2022/09/10 00:18:53;;;;;;;13.45;10.88;;;;;;;;;;5065625;28;20032;-62
2022/09/10 00:21:20;;;;;;;17.23;12.82;;;;;;;;;;5064935;28;20042;-62
2022/09/10 00:23:47;;;;;;;13.05;10.98;;;;;;;;;;5075286;28;20044;-62
2022/09/10 00:26:16;;;;;;;14.02;11.20;;;;;;;;;;5066127;28;20040;-62
2022/09/10 00:28:42;;;;;;;15.40;11.23;;;;;;;;;;5066239;28;20040;-62
2022/09/10 00:31:08;;;;;;;20.52;12.95;;;;;;;;;;5065741;28;20055;-62
2022/09/10 00:33:34;;;;;;;18.55;13.65;;;;;;;;;;5065953;28;20044;-62
2022/09/10 00:36:02;;;;;;;17.40;12.48;;;;;;;;;;5064321;28;20041;-61
2022/09/10 00:38:28;;;;;;;20.98;13.73;;;;;;;;;;5064338;28;20857;-62
2022/09/10 00:41:01;;;;;;;18.05;13.50;;;;;;;;;;5065826;28;20525;-62
2022/09/10 00:43:44;;;;;;;15.40;12.10;;;;;;;;;;5066148;28;20055;-62
2022/09/10 00:46:10;;;;;;;25.33;14.23;;;;;;;;;;5067549;28;20048;-62
2022/09/10 00:48:37;;;;;;;17.60;14.07;;;;;;;;;;5080914;28;20162;-62
2022/09/10 00:51:04;;;;;;;17.58;14.18;;;;;;;;;;5071153;28;20052;-62
2022/09/10 00:53:31;;;;;;;17.48;15.25;;;;;;;;;;5066341;28;20041;-62
2022/09/10 00:55:59;;;;;;;20.08;15.70;;;;;;;;;;5066340;28;20048;-62
2022/09/10 00:58:27;;;;;;;19.67;14.73;;;;;;;;;;5068510;28;20048;-61
2022/09/10 01:00:55;;;;;;;18.77;14.10;;;;;;;;;;5072366;28;20041;-62
2022/09/10 01:03:22;;;;;;;27.83;17.38;;;;;;;;;;5066805;28;20040;-62
2022/09/10 01:05:49;;;;;;;22.63;16.25;;;;;;;;;;5066140;28;20048;-62
2022/09/10 01:08:15;;;;;;;22.23;17.05;;;;;;;;;;5066611;28;20453;-62
2022/09/10 01:10:48;;;;;;;24.13;17.17;;;;;;;;;;5068287;28;20098;-61
2022/09/10 01:13:33;;;;;;;19.38;15.13;;;;;;;;;;5065497;28;20594;-61
2022/09/10 01:16:07;;;;;;;22.90;16.05;;;;;;;;;;5075641;28;20376;-62
2022/09/10 01:18:51;;;;;;;21.02;15.25;;;;;;;;;;5066709;28;20428;-61
2022/09/10 01:21:34;;;;;;;23.52;17.08;;;;;;;;;;5070656;28;20424;-62
2022/09/10 01:24:00;;;;;;;;;;;;;;;;;;5072206;28;20032;-62
2022/09/10 01:26:45;;;;;;;21.05;14.77;;;;;;;;;;5070536;28;19999;-62
2022/09/10 01:29:20;;;;;;;20.40;14.68;;;;;;;;;;5078982;28;20032;-62
2022/09/10 01:32:01;;;;;;;21.45;15.20;;;;;;;;;;5065676;28;20454;-62
2022/09/10 01:34:31;;;;;;;25.15;17.20;;;;;;;;;;5072175;28;20555;-61
2022/09/10 01:36:59;;;;;;;26.63;15.30;;;;;;;;;;5071399;28;20131;-62
2022/09/10 01:39:26;;;;;;;21.55;15.48;;;;;;;;;;5076752;28;20051;-62
2022/09/10 01:41:53;;;;;;;19.77;15.52;;;;;;;;;;5065906;28;20071;-62
2022/09/10 01:44:38;;;;;;;22.77;16.98;;;;;;;;;;5064370;28;20044;-62
2022/09/10 01:47:13;;;;;;;25.75;16.27;;;;;;;;;;5070549;28;20071;-62
2022/09/10 01:49:59;;;;;;;19.77;14.05;;;;;;;;;;5067680;28;20043;-61
2022/09/10 01:52:30;;;;;;;23.98;15.68;;;;;;;;;;5074340;28;20040;-62
2022/09/10 01:55:07;;;;;;;20.42;16.52;;;;;;;;;;5066420;28;20051;-62
2022/09/10 01:57:53;;;;;;;20.55;16.30;;;;;;;;;;5064416;28;20099;-62
2022/09/10 02:00:21;;;;;;;23.15;15.20;;;;;;;;;;5069149;28;20123;-62
2022/09/10 02:02:56;;;;;;;22.42;16.95;;;;;;;;;;5075026;28;20051;-62
2022/09/10 02:05:23;;;;;;;20.10;16.33;;;;;;;;;;5071198;28;20048;-62
2022/09/10 02:07:51;;;;;;;20.52;15.65;;;;;;;;;;5068634;28;20518;-62
2022/09/10 02:10:18;;;;;;;22.25;16.35;;;;;;;;;;5069161;28;20092;-62
2022/09/10 02:12:44;;;;;;;23.00;15.98;;;;;;;;;;5067741;28;20550;-61
2022/09/10 02:15:11;;;;;;;24.85;18.38;;;;;;;;;;5073881;28;20560;-62
2022/09/10 02:17:38;;;;;;;21.45;16.17;;;;;;;;;;5067879;28;20522;-62
2022/09/10 02:20:06;;;;;;;20.55;15.40;;;;;;;;;;5066252;28;20051;-62
2022/09/10 02:22:35;;;;;;;28.90;19.33;;;;;;;;;;5064463;28;20055;-62
2022/09/10 02:25:01;;;;;;;20.90;16.35;;;;;;;;;;5070237;28;20044;-62
2022/09/10 02:27:28;;;;;;;22.15;17.77;;;;;;;;;;5071640;28;20055;-62
2022/09/10 02:29:55;;;;;;;24.75;16.05;;;;;;;;;;5045158;28;20052;-61
2022/09/10 02:32:22;;;;;;;25.38;18.23;;;;;;;;;;5077302;28;20083;-62
2022/09/10 02:34:48;;;;;;;24.05;19.85;;;;;;;;;;5073135;28;20377;-62
2022/09/10 02:37:19;;;;;;;25.92;18.42;;;;;;;;;;5067840;28;20563;-61
2022/09/10 02:39:45;;;;;;;26.95;17.92;;;;;;;;;;5045550;28;20115;-62
2022/09/10 02:42:16;;;;;;;27.90;18.63;;;;;;;;;;5068562;28;20047;-62
2022/09/10 02:44:44;;;;;;;27.48;18.85;;;;;;;;;;5072577;28;20123;-62
2022/09/10 02:47:10;;;;;;;24.90;17.20;;;;;;;;;;5075593;28;20040;-61
2022/09/10 02:49:36;;;;;;;27.10;19.88;;;;;;;;;;5073488;28;20079;-61
2022/09/10 02:52:03;;;;;;;28.92;19.70;;;;;;;;;;5067604;28;20032;-62
2022/09/10 02:54:29;;;;;;;27.10;18.65;;;;;;;;;;5068991;28;20048;-61
2022/09/10 02:56:55;;;;;;;22.52;17.45;;;;;;;;;;5068874;28;20063;-62
2022/09/10 02:59:22;;;;;;;24.83;18.08;;;;;;;;;;5074289;28;20048;-62
2022/09/10 03:01:49;;;;;;;27.73;21.23;;;;;;;;;;5066500;28;20140;-61
2022/09/10 03:04:15;;;;;;;23.85;18.58;;;;;;;;;;5072959;28;20384;-61
2022/09/10 03:06:48;;;;;;;28.27;19.35;;;;;;;;;;5071239;28;20279;-62
2022/09/10 03:09:14;;;;;;;23.13;18.70;;;;;;;;;;5075580;28;20055;-62
2022/09/10 03:11:40;;;;;;;25.40;16.20;;;;;;;;;;5075024;28;20618;-62
2022/09/10 03:14:08;;;;;;;21.70;17.13;;;;;;;;;;5078149;28;20032;-62
2022/09/10 03:16:34;;;;;;;27.70;19.00;;;;;;;;;;5067568;28;20654;-62
2022/09/10 03:19:00;;;;;;;22.83;18.10;;;;;;;;;;5072926;28;20510;-61
2022/09/10 03:21:28;;;;;;;26.67;19.10;;;;;;;;;;5070564;28;20040;-62
2022/09/10 03:23:54;;;;;;;26.90;21.63;;;;;;;;;;5079752;28;20036;-62
2022/09/10 03:26:21;;;;;;;26.75;19.50;;;;;;;;;;5066498;28;20048;-62
2022/09/10 03:28:48;;;;;;;25.55;18.42;;;;;;;;;;5071420;28;20036;-62
2022/09/10 03:31:14;;;;;;;32.30;19.88;;;;;;;;;;5070149;28;20047;-61
2022/09/10 03:33:41;;;;;;;26.30;17.33;;;;;;;;;;5073962;28;20044;-62
2022/09/10 03:36:08;;;;;;;26.33;20.10;;;;;;;;;;5072572;28;20488;-61
2022/09/10 03:38:34;;;;;;;25.45;19.15;;;;;;;;;;5066653;28;20370;-61
2022/09/10 03:41:01;;;;;;;26.00;18.95;;;;;;;;;;5068647;28;20115;-62
2022/09/10 03:43:28;;;;;;;26.20;17.92;;;;;;;;;;5070639;28;20082;-62
2022/09/10 03:45:54;;;;;;;26.73;19.70;;;;;;;;;;5073889;28;20115;-62
2022/09/10 03:48:21;;;;;;;25.08;18.23;;;;;;;;;;5072566;28;20036;-61
2022/09/10 03:50:48;;;;;;;24.83;18.17;;;;;;;;;;5073492;28;20089;-61
2022/09/10 03:53:15;;;;;;;25.67;17.80;;;;;;;;;;5066347;28;20036;-62
2022/09/10 03:55:45;;;;;;;28.92;18.80;;;;;;;;;;5069742;28;20040;-62
2022/09/10 03:58:11;;;;;;;21.90;17.15;;;;;;;;;;5070815;28;20129;-62
2022/09/10 04:00:37;;;;;;;25.08;18.90;;;;;;;;;;5071841;28;20127;-61
2022/09/10 04:03:04;;;;;;;22.95;17.40;;;;;;;;;;5076590;28;20041;-62
2022/09/10 04:05:31;;;;;;;27.42;18.05;;;;;;;;;;5080446;28;20044;-62
2022/09/10 04:08:03;;;;;;;25.15;18.10;;;;;;;;;;5074077;28;20143;-62
2022/09/10 04:10:29;;;;;;;23.08;17.55;;;;;;;;;;5069287;28;20056;-62
2022/09/10 04:12:56;;;;;;;26.65;19.05;;;;;;;;;;5070861;28;20124;-62
2022/09/10 04:15:22;;;;;;;24.13;19.50;;;;;;;;;;5078929;28;20297;-62
2022/09/10 04:17:53;;;;;;;27.20;19.23;;;;;;;;;;5080445;28;20055;-62
2022/09/10 04:20:21;;;;;;;30.42;20.95;;;;;;;;;;5068436;28;20513;-62
2022/09/10 04:22:48;;;;;;;27.83;21.00;;;;;;;;;;5069744;28;20036;-62
2022/09/10 04:25:15;;;;;;;32.67;21.63;;;;;;;;;;5074083;28;20128;-62
2022/09/10 04:27:42;;;;;;;28.50;20.05;;;;;;;;;;5073266;28;20418;-62
2022/09/10 04:30:09;;;;;;;38.53;22.38;;;;;;;;;;5075220;28;20059;-61
2022/09/10 04:32:35;;;;;;;29.40;20.85;;;;;;;;;;5078077;28;20048;-62
2022/09/10 04:35:01;;;;;;;32.08;22.55;;;;;;;;;;5066644;28;20118;-62
2022/09/10 04:37:58;;;;;;;27.17;20.80;;;;;;;;;;5070426;28;20051;-62
2022/09/10 04:40:26;;;;;;;24.65;19.30;;;;;;;;;;5076371;28;20040;-62
2022/09/10 04:42:52;;;;;;;25.00;18.98;;;;;;;;;;5074276;28;20040;-62
2022/09/10 04:45:37;;;;;;;26.55;18.88;;;;;;;;;;5073884;28;20044;-62
2022/09/10 04:48:03;;;;;;;27.02;19.25;;;;;;;;;;5061980;28;20226;-61
2022/09/10 04:50:29;;;;;;;26.63;18.83;;;;;;;;;;5069081;28;20131;-61
2022/09/10 04:52:55;;;;;;;24.85;19.63;;;;;;;;;;5065482;28;20373;-61
2022/09/10 04:55:21;;;;;;;28.15;21.00;;;;;;;;;;5066942;28;20409;-61
2022/09/10 04:57:47;;;;;;;23.95;18.45;;;;;;;;;;5063698;28;20102;-61
2022/09/10 05:00:14;;;;;;;25.48;19.80;;;;;;;;;;5062995;28;20045;-64
2022/09/10 05:02:40;;;;;;;31.20;19.67;;;;;;;;;;5063449;28;20507;-64
2022/09/10 05:05:06;;;;;;;27.48;19.65;;;;;;;;;;5063375;28;20135;-64
